sensor_id;sensor_type;location;lat;lon;timestamp;P1;durP1;ratioP1;P2;durP2;ratioP2
41568;SDS011;27283;52.504;13.358;2022-12-16T00:00:13;111.15;;;42.40;;
41568;SDS011;27283;52.504;13.358;2022-12-16T00:03:10;115.00;;;41.97;;
41568;SDS011;27283;52.504;13.358;2022-12-16T00:05:43;109.00;;;41.13;;
41568;SDS011;27283;52.504;13.358;2022-12-16T00:08:20;131.13;;;47.38;;
41568;SDS011;27283;52.504;13.358;2022-12-16T00:10:58;123.75;;;44.55;;
41568;SDS011;27283;52.504;13.358;2022-12-16T00:13:41;117.57;;;42.45;;
41568;SDS011;27283;52.504;13.358;2022-12-16T00:16:13;119.50;;;43.33;;
41568;SDS011;27283;52.504;13.358;2022-12-16T00:18:49;120.78;;;46.08;;
41568;SDS011;27283;52.504;13.358;2022-12-16T00:21:21;122.82;;;42.88;;
41568;SDS011;27283;52.504;13.358;2022-12-16T00:23:57;115.50;;;41.85;;
41568;SDS011;27283;52.504;13.358;2022-12-16T00:26:32;111.35;;;41.50;;
41568;SDS011;27283;52.504;13.358;2022-12-16T00:29:05;118.75;;;43.83;;
41568;SDS011;27283;52.504;13.358;2022-12-16T00:31:44;108.65;;;41.67;;
41568;SDS011;27283;52.504;13.358;2022-12-16T00:34:18;125.35;;;44.03;;
41568;SDS011;27283;52.504;13.358;2022-12-16T00:36:50;117.82;;;42.35;;
41568;SDS011;27283;52.504;13.358;2022-12-16T00:39:25;116.03;;;45.22;;
41568;SDS011;27283;52.504;13.358;2022-12-16T00:42:00;120.57;;;43.53;;
41568;SDS011;27283;52.504;13.358;2022-12-16T00:44:35;122.05;;;44.72;;
41568;SDS011;27283;52.504;13.358;2022-12-16T00:47:11;116.43;;;44.33;;
41568;SDS011;27283;52.504;13.358;2022-12-16T00:49:44;115.20;;;43.97;;
41568;SDS011;27283;52.504;13.358;2022-12-16T00:52:16;121.07;;;46.08;;
41568;SDS011;27283;52.504;13.358;2022-12-16T00:54:49;116.95;;;44.80;;
41568;SDS011;27283;52.504;13.358;2022-12-16T00:57:27;118.32;;;44.92;;
41568;SDS011;27283;52.504;13.358;2022-12-16T01:00:10;126.80;;;42.72;;
41568;SDS011;27283;52.504;13.358;2022-12-16T01:02:44;107.22;;;41.53;;
41568;SDS011;27283;52.504;13.358;2022-12-16T01:05:22;107.28;;;39.83;;
41568;SDS011;27283;52.504;13.358;2022-12-16T01:08:04;105.05;;;38.70;;
41568;SDS011;27283;52.504;13.358;2022-12-16T01:10:48;110.40;;;39.58;;
41568;SDS011;27283;52.504;13.358;2022-12-16T01:13:25;101.28;;;39.00;;
41568;SDS011;27283;52.504;13.358;2022-12-16T01:15:58;102.15;;;39.15;;
41568;SDS011;27283;52.504;13.358;2022-12-16T01:18:30;97.55;;;38.28;;
41568;SDS011;27283;52.504;13.358;2022-12-16T01:21:02;102.63;;;38.88;;
41568;SDS011;27283;52.504;13.358;2022-12-16T01:23:36;99.82;;;39.45;;
41568;SDS011;27283;52.504;13.358;2022-12-16T01:26:09;101.22;;;38.88;;
41568;SDS011;27283;52.504;13.358;2022-12-16T01:28:49;102.35;;;38.28;;
41568;SDS011;27283;52.504;13.358;2022-12-16T01:31:22;102.00;;;39.05;;
41568;SDS011;27283;52.504;13.358;2022-12-16T01:33:55;99.00;;;39.47;;
41568;SDS011;27283;52.504;13.358;2022-12-16T01:36:29;95.97;;;38.17;;
41568;SDS011;27283;52.504;13.358;2022-12-16T01:39:02;109.18;;;39.33;;
41568;SDS011;27283;52.504;13.358;2022-12-16T01:41:34;98.95;;;39.22;;
41568;SDS011;27283;52.504;13.358;2022-12-16T01:44:14;105.70;;;38.30;;
41568;SDS011;27283;52.504;13.358;2022-12-16T01:46:50;95.63;;;37.20;;
41568;SDS011;27283;52.504;13.358;2022-12-16T01:49:25;94.95;;;36.88;;
41568;SDS011;27283;52.504;13.358;2022-12-16T01:52:06;97.15;;;38.13;;
41568;SDS011;27283;52.504;13.358;2022-12-16T01:54:43;104.47;;;38.65;;
41568;SDS011;27283;52.504;13.358;2022-12-16T01:57:25;93.47;;;37.03;;
41568;SDS011;27283;52.504;13.358;2022-12-16T02:00:08;96.88;;;36.72;;
41568;SDS011;27283;52.504;13.358;2022-12-16T02:02:44;95.05;;;36.90;;
41568;SDS011;27283;52.504;13.358;2022-12-16T02:05:18;95.95;;;37.53;;
41568;SDS011;27283;52.504;13.358;2022-12-16T02:08:00;100.38;;;37.05;;
41568;SDS011;27283;52.504;13.358;2022-12-16T02:10:53;98.80;;;36.75;;
41568;SDS011;27283;52.504;13.358;2022-12-16T02:13:48;100.00;;;37.08;;
41568;SDS011;27283;52.504;13.358;2022-12-16T02:16:52;102.13;;;35.55;;
41568;SDS011;27283;52.504;13.358;2022-12-16T02:19:46;91.05;;;37.13;;
41568;SDS011;27283;52.504;13.358;2022-12-16T02:22:45;89.57;;;36.20;;
41568;SDS011;27283;52.504;13.358;2022-12-16T02:25:34;92.30;;;36.38;;
41568;SDS011;27283;52.504;13.358;2022-12-16T02:28:32;87.35;;;35.80;;
41568;SDS011;27283;52.504;13.358;2022-12-16T02:31:25;91.13;;;35.90;;
41568;SDS011;27283;52.504;13.358;2022-12-16T02:34:09;89.55;;;34.88;;
41568;SDS011;27283;52.504;13.358;2022-12-16T02:36:58;99.40;;;36.92;;
41568;SDS011;27283;52.504;13.358;2022-12-16T02:39:41;89.13;;;35.38;;
41568;SDS011;27283;52.504;13.358;2022-12-16T02:42:24;109.18;;;36.47;;
41568;SDS011;27283;52.504;13.358;2022-12-16T02:45:00;91.13;;;36.30;;
41568;SDS011;27283;52.504;13.358;2022-12-16T02:47:40;97.25;;;36.63;;
41568;SDS011;27283;52.504;13.358;2022-12-16T02:50:17;93.35;;;34.90;;
41568;SDS011;27283;52.504;13.358;2022-12-16T02:52:56;95.63;;;37.03;;
41568;SDS011;27283;52.504;13.358;2022-12-16T02:55:32;92.53;;;35.22;;
41568;SDS011;27283;52.504;13.358;2022-12-16T02:58:22;93.75;;;35.08;;
41568;SDS011;27283;52.504;13.358;2022-12-16T03:01:01;94.63;;;36.42;;
41568;SDS011;27283;52.504;13.358;2022-12-16T03:03:45;92.63;;;35.17;;
41568;SDS011;27283;52.504;13.358;2022-12-16T03:06:24;91.85;;;36.40;;
41568;SDS011;27283;52.504;13.358;2022-12-16T03:09:00;94.38;;;36.78;;
41568;SDS011;27283;52.504;13.358;2022-12-16T03:11:35;93.13;;;36.40;;
41568;SDS011;27283;52.504;13.358;2022-12-16T03:14:13;92.43;;;35.45;;
41568;SDS011;27283;52.504;13.358;2022-12-16T03:16:48;95.10;;;36.05;;
41568;SDS011;27283;52.504;13.358;2022-12-16T03:19:24;96.05;;;35.58;;
41568;SDS011;27283;52.504;13.358;2022-12-16T03:21:59;94.03;;;37.20;;
41568;SDS011;27283;52.504;13.358;2022-12-16T03:24:35;90.63;;;35.20;;
41568;SDS011;27283;52.504;13.358;2022-12-16T03:27:10;100.60;;;35.35;;
41568;SDS011;27283;52.504;13.358;2022-12-16T03:29:49;93.32;;;34.28;;
41568;SDS011;27283;52.504;13.358;2022-12-16T03:32:26;92.10;;;34.33;;
41568;SDS011;27283;52.504;13.358;2022-12-16T03:35:07;94.60;;;35.92;;
41568;SDS011;27283;52.504;13.358;2022-12-16T03:37:44;95.43;;;35.35;;
41568;SDS011;27283;52.504;13.358;2022-12-16T03:40:18;94.80;;;36.55;;
41568;SDS011;27283;52.504;13.358;2022-12-16T03:42:53;105.30;;;38.05;;
41568;SDS011;27283;52.504;13.358;2022-12-16T03:45:29;97.97;;;36.97;;
41568;SDS011;27283;52.504;13.358;2022-12-16T03:48:07;106.07;;;38.72;;
41568;SDS011;27283;52.504;13.358;2022-12-16T03:50:44;100.88;;;37.53;;
41568;SDS011;27283;52.504;13.358;2022-12-16T03:53:16;111.60;;;38.70;;
41568;SDS011;27283;52.504;13.358;2022-12-16T03:55:56;106.05;;;39.85;;
41568;SDS011;27283;52.504;13.358;2022-12-16T03:58:29;110.22;;;40.85;;
41568;SDS011;27283;52.504;13.358;2022-12-16T04:01:05;107.68;;;40.15;;
41568;SDS011;27283;52.504;13.358;2022-12-16T04:03:38;107.88;;;40.40;;
41568;SDS011;27283;52.504;13.358;2022-12-16T04:06:16;119.78;;;39.95;;
41568;SDS011;27283;52.504;13.358;2022-12-16T04:08:49;110.78;;;40.78;;
41568;SDS011;27283;52.504;13.358;2022-12-16T04:11:21;111.82;;;39.40;;
41568;SDS011;27283;52.504;13.358;2022-12-16T04:14:08;110.60;;;40.58;;
41568;SDS011;27283;52.504;13.358;2022-12-16T04:16:53;108.70;;;39.20;;
41568;SDS011;27283;52.504;13.358;2022-12-16T04:19:39;114.32;;;40.08;;
41568;SDS011;27283;52.504;13.358;2022-12-16T04:22:29;103.90;;;39.08;;
41568;SDS011;27283;52.504;13.358;2022-12-16T04:25:17;105.63;;;39.70;;
41568;SDS011;27283;52.504;13.358;2022-12-16T04:27:52;106.40;;;38.65;;
41568;SDS011;27283;52.504;13.358;2022-12-16T04:30:27;107.57;;;39.20;;
41568;SDS011;27283;52.504;13.358;2022-12-16T04:33:03;112.80;;;39.97;;
41568;SDS011;27283;52.504;13.358;2022-12-16T04:35:50;113.47;;;40.22;;
41568;SDS011;27283;52.504;13.358;2022-12-16T04:38:37;107.85;;;40.05;;
41568;SDS011;27283;52.504;13.358;2022-12-16T04:41:23;110.25;;;39.50;;
41568;SDS011;27283;52.504;13.358;2022-12-16T04:44:08;109.97;;;39.97;;
41568;SDS011;27283;52.504;13.358;2022-12-16T04:46:53;113.03;;;40.88;;
41568;SDS011;27283;52.504;13.358;2022-12-16T04:49:37;105.80;;;39.35;;
41568;SDS011;27283;52.504;13.358;2022-12-16T04:52:21;103.38;;;38.17;;
41568;SDS011;27283;52.504;13.358;2022-12-16T04:55:10;101.00;;;38.00;;
41568;SDS011;27283;52.504;13.358;2022-12-16T04:57:54;97.72;;;37.55;;
41568;SDS011;27283;52.504;13.358;2022-12-16T05:00:46;112.07;;;37.33;;
41568;SDS011;27283;52.504;13.358;2022-12-16T05:03:34;96.82;;;36.83;;
41568;SDS011;27283;52.504;13.358;2022-12-16T05:06:19;99.72;;;36.70;;
41568;SDS011;27283;52.504;13.358;2022-12-16T05:09:07;93.35;;;36.03;;
41568;SDS011;27283;52.504;13.358;2022-12-16T05:11:54;86.57;;;34.33;;
41568;SDS011;27283;52.504;13.358;2022-12-16T05:14:37;88.55;;;35.53;;
41568;SDS011;27283;52.504;13.358;2022-12-16T05:17:22;93.38;;;35.20;;
41568;SDS011;27283;52.504;13.358;2022-12-16T05:20:06;91.60;;;35.55;;
41568;SDS011;27283;52.504;13.358;2022-12-16T05:22:53;92.18;;;35.60;;
41568;SDS011;27283;52.504;13.358;2022-12-16T05:25:38;91.03;;;35.50;;
41568;SDS011;27283;52.504;13.358;2022-12-16T05:28:25;96.70;;;36.38;;
41568;SDS011;27283;52.504;13.358;2022-12-16T05:31:09;90.47;;;36.22;;
41568;SDS011;27283;52.504;13.358;2022-12-16T05:33:54;88.78;;;34.58;;
41568;SDS011;27283;52.504;13.358;2022-12-16T05:36:39;86.35;;;35.20;;
41568;SDS011;27283;52.504;13.358;2022-12-16T05:39:23;88.10;;;35.08;;
41568;SDS011;27283;52.504;13.358;2022-12-16T05:42:07;94.32;;;36.35;;
41568;SDS011;27283;52.504;13.358;2022-12-16T05:44:56;94.45;;;36.00;;
41568;SDS011;27283;52.504;13.358;2022-12-16T05:47:40;86.70;;;34.88;;
41568;SDS011;27283;52.504;13.358;2022-12-16T05:50:24;93.78;;;35.38;;
41568;SDS011;27283;52.504;13.358;2022-12-16T05:53:08;96.53;;;36.80;;
41568;SDS011;27283;52.504;13.358;2022-12-16T05:55:53;103.88;;;37.72;;
41568;SDS011;27283;52.504;13.358;2022-12-16T05:58:37;95.28;;;36.35;;
41568;SDS011;27283;52.504;13.358;2022-12-16T06:01:26;88.80;;;35.75;;
41568;SDS011;27283;52.504;13.358;2022-12-16T06:04:10;93.10;;;35.58;;
41568;SDS011;27283;52.504;13.358;2022-12-16T06:06:56;92.78;;;36.08;;
41568;SDS011;27283;52.504;13.358;2022-12-16T06:09:40;112.22;;;37.42;;
41568;SDS011;27283;52.504;13.358;2022-12-16T06:12:25;93.38;;;35.33;;
41568;SDS011;27283;52.504;13.358;2022-12-16T06:15:09;100.55;;;37.42;;
41568;SDS011;27283;52.504;13.358;2022-12-16T06:18:12;100.25;;;37.13;;
41568;SDS011;27283;52.504;13.358;2022-12-16T06:20:56;100.93;;;37.53;;
41568;SDS011;27283;52.504;13.358;2022-12-16T06:23:45;101.70;;;37.40;;
41568;SDS011;27283;52.504;13.358;2022-12-16T06:26:29;92.65;;;36.85;;
41568;SDS011;27283;52.504;13.358;2022-12-16T06:29:14;99.55;;;38.63;;
41568;SDS011;27283;52.504;13.358;2022-12-16T06:31:59;102.55;;;37.72;;
41568;SDS011;27283;52.504;13.358;2022-12-16T06:34:46;103.20;;;38.15;;
41568;SDS011;27283;52.504;13.358;2022-12-16T06:37:31;97.40;;;37.55;;
41568;SDS011;27283;52.504;13.358;2022-12-16T06:40:16;101.43;;;37.35;;
41568;SDS011;27283;52.504;13.358;2022-12-16T06:43:01;112.53;;;39.42;;
41568;SDS011;27283;52.504;13.358;2022-12-16T06:45:46;104.03;;;37.97;;
41568;SDS011;27283;52.504;13.358;2022-12-16T06:48:30;120.15;;;41.88;;
41568;SDS011;27283;52.504;13.358;2022-12-16T06:51:18;118.18;;;41.67;;
41568;SDS011;27283;52.504;13.358;2022-12-16T06:54:02;104.40;;;37.78;;
41568;SDS011;27283;52.504;13.358;2022-12-16T06:56:46;105.55;;;39.20;;
41568;SDS011;27283;52.504;13.358;2022-12-16T06:59:30;103.90;;;39.55;;
41568;SDS011;27283;52.504;13.358;2022-12-16T07:02:15;112.55;;;39.33;;
41568;SDS011;27283;52.504;13.358;2022-12-16T07:05:10;111.28;;;40.78;;
41568;SDS011;27283;52.504;13.358;2022-12-16T07:07:57;102.82;;;38.85;;
41568;SDS011;27283;52.504;13.358;2022-12-16T07:10:41;111.43;;;39.00;;
41568;SDS011;27283;52.504;13.358;2022-12-16T07:13:44;111.53;;;39.22;;
41568;SDS011;27283;52.504;13.358;2022-12-16T07:16:27;110.70;;;38.58;;
41568;SDS011;27283;52.504;13.358;2022-12-16T07:19:12;106.90;;;38.80;;
41568;SDS011;27283;52.504;13.358;2022-12-16T07:21:56;103.65;;;39.38;;
41568;SDS011;27283;52.504;13.358;2022-12-16T07:24:43;112.80;;;41.00;;
41568;SDS011;27283;52.504;13.358;2022-12-16T07:27:27;116.95;;;39.78;;
41568;SDS011;27283;52.504;13.358;2022-12-16T07:30:11;109.90;;;40.55;;
41568;SDS011;27283;52.504;13.358;2022-12-16T07:32:55;107.80;;;40.45;;
41568;SDS011;27283;52.504;13.358;2022-12-16T07:35:41;100.80;;;39.10;;
41568;SDS011;27283;52.504;13.358;2022-12-16T07:38:25;108.53;;;39.75;;
41568;SDS011;27283;52.504;13.358;2022-12-16T07:41:12;95.65;;;37.63;;
41568;SDS011;27283;52.504;13.358;2022-12-16T07:43:56;112.75;;;38.33;;
41568;SDS011;27283;52.504;13.358;2022-12-16T07:46:43;111.13;;;41.10;;
41568;SDS011;27283;52.504;13.358;2022-12-16T07:49:27;107.70;;;39.45;;
41568;SDS011;27283;52.504;13.358;2022-12-16T07:52:11;108.53;;;38.80;;
41568;SDS011;27283;52.504;13.358;2022-12-16T07:54:55;114.75;;;40.22;;
41568;SDS011;27283;52.504;13.358;2022-12-16T07:57:42;109.78;;;39.95;;
41568;SDS011;27283;52.504;13.358;2022-12-16T08:00:32;103.32;;;37.08;;
41568;SDS011;27283;52.504;13.358;2022-12-16T08:03:16;108.78;;;37.92;;
41568;SDS011;27283;52.504;13.358;2022-12-16T08:06:00;107.35;;;39.67;;
41568;SDS011;27283;52.504;13.358;2022-12-16T08:08:44;105.65;;;37.85;;
41568;SDS011;27283;52.504;13.358;2022-12-16T08:11:28;101.50;;;36.88;;
41568;SDS011;27283;52.504;13.358;2022-12-16T08:14:14;101.97;;;37.70;;
41568;SDS011;27283;52.504;13.358;2022-12-16T08:16:58;111.43;;;39.35;;
41568;SDS011;27283;52.504;13.358;2022-12-16T08:19:42;100.60;;;37.55;;
41568;SDS011;27283;52.504;13.358;2022-12-16T08:22:25;101.72;;;38.22;;
41568;SDS011;27283;52.504;13.358;2022-12-16T08:25:09;105.32;;;39.63;;
41568;SDS011;27283;52.504;13.358;2022-12-16T08:27:53;102.88;;;36.55;;
41568;SDS011;27283;52.504;13.358;2022-12-16T08:30:41;101.25;;;38.28;;
41568;SDS011;27283;52.504;13.358;2022-12-16T08:33:24;107.40;;;40.80;;
41568;SDS011;27283;52.504;13.358;2022-12-16T08:36:14;98.85;;;38.22;;
41568;SDS011;27283;52.504;13.358;2022-12-16T08:38:57;95.55;;;37.78;;
41568;SDS011;27283;52.504;13.358;2022-12-16T08:41:42;95.88;;;37.92;;
41568;SDS011;27283;52.504;13.358;2022-12-16T08:44:25;94.70;;;37.78;;
41568;SDS011;27283;52.504;13.358;2022-12-16T08:47:12;95.13;;;36.28;;
41568;SDS011;27283;52.504;13.358;2022-12-16T08:50:08;91.82;;;35.15;;
41568;SDS011;27283;52.504;13.358;2022-12-16T08:53:03;90.28;;;34.75;;
41568;SDS011;27283;52.504;13.358;2022-12-16T08:55:47;95.82;;;35.28;;
41568;SDS011;27283;52.504;13.358;2022-12-16T08:58:31;78.32;;;33.38;;
41568;SDS011;27283;52.504;13.358;2022-12-16T09:01:15;85.63;;;34.45;;
41568;SDS011;27283;52.504;13.358;2022-12-16T09:04:02;85.15;;;35.05;;
41568;SDS011;27283;52.504;13.358;2022-12-16T09:06:45;79.68;;;32.30;;
41568;SDS011;27283;52.504;13.358;2022-12-16T09:09:29;83.10;;;33.25;;
41568;SDS011;27283;52.504;13.358;2022-12-16T09:12:13;83.07;;;32.38;;
41568;SDS011;27283;52.504;13.358;2022-12-16T09:14:57;87.30;;;34.05;;
41568;SDS011;27283;52.504;13.358;2022-12-16T09:17:41;84.82;;;33.88;;
41568;SDS011;27283;52.504;13.358;2022-12-16T09:20:28;79.30;;;33.55;;
41568;SDS011;27283;52.504;13.358;2022-12-16T09:23:12;72.38;;;31.67;;
41568;SDS011;27283;52.504;13.358;2022-12-16T09:26:02;87.18;;;35.05;;
41568;SDS011;27283;52.504;13.358;2022-12-16T09:28:46;82.82;;;34.33;;
41568;SDS011;27283;52.504;13.358;2022-12-16T09:31:30;88.65;;;35.08;;
41568;SDS011;27283;52.504;13.358;2022-12-16T09:34:14;82.38;;;32.38;;
41568;SDS011;27283;52.504;13.358;2022-12-16T09:37:02;86.32;;;34.35;;
41568;SDS011;27283;52.504;13.358;2022-12-16T09:39:46;85.68;;;32.83;;
41568;SDS011;27283;52.504;13.358;2022-12-16T09:42:33;88.93;;;34.55;;
41568;SDS011;27283;52.504;13.358;2022-12-16T09:45:32;80.75;;;31.90;;
41568;SDS011;27283;52.504;13.358;2022-12-16T09:48:27;80.53;;;32.83;;
41568;SDS011;27283;52.504;13.358;2022-12-16T09:51:18;85.70;;;32.08;;
41568;SDS011;27283;52.504;13.358;2022-12-16T09:54:07;83.32;;;32.75;;
41568;SDS011;27283;52.504;13.358;2022-12-16T09:56:57;84.57;;;35.08;;
41568;SDS011;27283;52.504;13.358;2022-12-16T09:59:48;79.22;;;33.58;;
41568;SDS011;27283;52.504;13.358;2022-12-16T10:02:37;81.82;;;33.90;;
41568;SDS011;27283;52.504;13.358;2022-12-16T10:05:34;84.55;;;32.63;;
41568;SDS011;27283;52.504;13.358;2022-12-16T10:08:28;79.28;;;32.10;;
41568;SDS011;27283;52.504;13.358;2022-12-16T10:11:26;81.15;;;32.63;;
41568;SDS011;27283;52.504;13.358;2022-12-16T10:14:18;84.65;;;33.78;;
41568;SDS011;27283;52.504;13.358;2022-12-16T10:17:11;84.35;;;32.83;;
41568;SDS011;27283;52.504;13.358;2022-12-16T10:20:02;88.13;;;34.35;;
41568;SDS011;27283;52.504;13.358;2022-12-16T10:22:58;81.60;;;33.85;;
41568;SDS011;27283;52.504;13.358;2022-12-16T10:25:57;83.82;;;33.20;;
41568;SDS011;27283;52.504;13.358;2022-12-16T10:28:53;80.53;;;33.60;;
41568;SDS011;27283;52.504;13.358;2022-12-16T10:31:48;83.03;;;33.80;;
41568;SDS011;27283;52.504;13.358;2022-12-16T10:34:33;85.03;;;34.05;;
41568;SDS011;27283;52.504;13.358;2022-12-16T10:37:23;74.53;;;33.88;;
41568;SDS011;27283;52.504;13.358;2022-12-16T10:40:16;88.82;;;35.00;;
41568;SDS011;27283;52.504;13.358;2022-12-16T10:43:04;84.13;;;35.05;;
41568;SDS011;27283;52.504;13.358;2022-12-16T10:46:01;85.35;;;35.58;;
41568;SDS011;27283;52.504;13.358;2022-12-16T10:48:55;93.07;;;36.50;;
41568;SDS011;27283;52.504;13.358;2022-12-16T10:51:40;86.93;;;34.70;;
41568;SDS011;27283;52.504;13.358;2022-12-16T10:54:28;85.10;;;36.10;;
41568;SDS011;27283;52.504;13.358;2022-12-16T10:57:19;85.97;;;35.40;;
41568;SDS011;27283;52.504;13.358;2022-12-16T11:00:19;93.78;;;38.10;;
41568;SDS011;27283;52.504;13.358;2022-12-16T11:03:24;93.18;;;37.78;;
41568;SDS011;27283;52.504;13.358;2022-12-16T11:06:10;93.15;;;36.15;;
41568;SDS011;27283;52.504;13.358;2022-12-16T11:09:07;90.28;;;37.92;;
41568;SDS011;27283;52.504;13.358;2022-12-16T11:12:09;94.72;;;38.13;;
41568;SDS011;27283;52.504;13.358;2022-12-16T11:14:58;86.55;;;36.35;;
41568;SDS011;27283;52.504;13.358;2022-12-16T11:18:00;90.03;;;38.08;;
41568;SDS011;27283;52.504;13.358;2022-12-16T11:20:56;94.90;;;38.30;;
41568;SDS011;27283;52.504;13.358;2022-12-16T11:23:51;89.38;;;37.00;;
41568;SDS011;27283;52.504;13.358;2022-12-16T11:26:52;85.25;;;37.03;;
41568;SDS011;27283;52.504;13.358;2022-12-16T11:29:48;91.03;;;39.40;;
41568;SDS011;27283;52.504;13.358;2022-12-16T11:32:33;89.40;;;37.15;;
41568;SDS011;27283;52.504;13.358;2022-12-16T11:35:21;92.95;;;37.80;;
41568;SDS011;27283;52.504;13.358;2022-12-16T11:38:14;92.28;;;37.15;;
41568;SDS011;27283;52.504;13.358;2022-12-16T11:41:06;89.70;;;37.97;;
41568;SDS011;27283;52.504;13.358;2022-12-16T11:43:55;87.90;;;37.88;;
41568;SDS011;27283;52.504;13.358;2022-12-16T11:46:43;91.25;;;38.10;;
41568;SDS011;27283;52.504;13.358;2022-12-16T11:49:30;85.40;;;37.00;;
41568;SDS011;27283;52.504;13.358;2022-12-16T11:52:16;90.13;;;38.75;;
41568;SDS011;27283;52.504;13.358;2022-12-16T11:55:11;89.55;;;35.35;;
41568;SDS011;27283;52.504;13.358;2022-12-16T11:58:24;88.57;;;37.05;;
41568;SDS011;27283;52.504;13.358;2022-12-16T12:01:17;92.30;;;39.00;;
41568;SDS011;27283;52.504;13.358;2022-12-16T12:04:12;89.72;;;37.67;;
41568;SDS011;27283;52.504;13.358;2022-12-16T12:07:01;83.50;;;36.97;;
41568;SDS011;27283;52.504;13.358;2022-12-16T12:13:43;86.43;;;36.58;;
41568;SDS011;27283;52.504;13.358;2022-12-16T12:16:38;86.13;;;36.88;;
41568;SDS011;27283;52.504;13.358;2022-12-16T12:19:38;92.80;;;36.35;;
41568;SDS011;27283;52.504;13.358;2022-12-16T12:22:33;95.30;;;38.13;;
41568;SDS011;27283;52.504;13.358;2022-12-16T12:25:24;82.75;;;37.42;;
41568;SDS011;27283;52.504;13.358;2022-12-16T12:28:20;87.22;;;37.95;;
41568;SDS011;27283;52.504;13.358;2022-12-16T12:31:17;81.65;;;35.83;;
41568;SDS011;27283;52.504;13.358;2022-12-16T12:34:14;91.35;;;37.28;;
41568;SDS011;27283;52.504;13.358;2022-12-16T12:37:07;83.78;;;36.25;;
41568;SDS011;27283;52.504;13.358;2022-12-16T12:40:03;84.70;;;36.67;;
41568;SDS011;27283;52.504;13.358;2022-12-16T12:43:03;81.38;;;36.58;;
41568;SDS011;27283;52.504;13.358;2022-12-16T12:45:59;87.63;;;36.33;;
41568;SDS011;27283;52.504;13.358;2022-12-16T12:48:51;80.57;;;35.45;;
41568;SDS011;27283;52.504;13.358;2022-12-16T12:51:44;82.82;;;35.45;;
41568;SDS011;27283;52.504;13.358;2022-12-16T12:54:40;81.13;;;34.22;;
41568;SDS011;27283;52.504;13.358;2022-12-16T12:57:34;87.57;;;36.13;;
41568;SDS011;27283;52.504;13.358;2022-12-16T13:00:38;85.28;;;35.17;;
41568;SDS011;27283;52.504;13.358;2022-12-16T13:03:30;91.50;;;36.75;;
41568;SDS011;27283;52.504;13.358;2022-12-16T13:06:21;84.72;;;35.65;;
41568;SDS011;27283;52.504;13.358;2022-12-16T13:09:21;87.18;;;35.22;;
41568;SDS011;27283;52.504;13.358;2022-12-16T13:12:19;79.97;;;35.03;;
41568;SDS011;27283;52.504;13.358;2022-12-16T13:18:21;80.88;;;36.22;;
41568;SDS011;27283;52.504;13.358;2022-12-16T13:24:31;85.55;;;36.45;;
41568;SDS011;27283;52.504;13.358;2022-12-16T13:27:29;84.65;;;35.83;;
41568;SDS011;27283;52.504;13.358;2022-12-16T13:30:29;85.03;;;36.67;;
41568;SDS011;27283;52.504;13.358;2022-12-16T13:33:23;86.53;;;36.22;;
41568;SDS011;27283;52.504;13.358;2022-12-16T13:36:14;79.97;;;35.65;;
41568;SDS011;27283;52.504;13.358;2022-12-16T13:39:18;88.10;;;36.47;;
41568;SDS011;27283;52.504;13.358;2022-12-16T13:42:29;82.22;;;35.17;;
41568;SDS011;27283;52.504;13.358;2022-12-16T13:45:30;82.32;;;34.15;;
41568;SDS011;27283;52.504;13.358;2022-12-16T13:48:30;75.05;;;32.65;;
41568;SDS011;27283;52.504;13.358;2022-12-16T13:54:45;80.65;;;32.97;;
41568;SDS011;27283;52.504;13.358;2022-12-16T13:57:39;76.28;;;32.72;;
41568;SDS011;27283;52.504;13.358;2022-12-16T14:00:28;73.78;;;32.00;;
41568;SDS011;27283;52.504;13.358;2022-12-16T14:03:18;75.38;;;31.98;;
41568;SDS011;27283;52.504;13.358;2022-12-16T14:06:09;78.70;;;31.27;;
41568;SDS011;27283;52.504;13.358;2022-12-16T14:09:01;72.07;;;30.77;;
41568;SDS011;27283;52.504;13.358;2022-12-16T14:11:52;73.70;;;31.48;;
41568;SDS011;27283;52.504;13.358;2022-12-16T14:14:50;78.60;;;31.65;;
41568;SDS011;27283;52.504;13.358;2022-12-16T14:17:45;72.65;;;32.50;;
41568;SDS011;27283;52.504;13.358;2022-12-16T14:20:38;76.70;;;32.22;;
41568;SDS011;27283;52.504;13.358;2022-12-16T14:23:31;74.72;;;31.63;;
41568;SDS011;27283;52.504;13.358;2022-12-16T14:26:25;83.30;;;33.83;;
41568;SDS011;27283;52.504;13.358;2022-12-16T14:29:14;75.57;;;33.42;;
41568;SDS011;27283;52.504;13.358;2022-12-16T14:35:11;79.60;;;33.58;;
41568;SDS011;27283;52.504;13.358;2022-12-16T14:38:11;80.93;;;35.08;;
41568;SDS011;27283;52.504;13.358;2022-12-16T14:41:09;84.00;;;34.45;;
41568;SDS011;27283;52.504;13.358;2022-12-16T14:43:57;83.75;;;34.80;;
41568;SDS011;27283;52.504;13.358;2022-12-16T14:46:47;79.53;;;34.45;;
41568;SDS011;27283;52.504;13.358;2022-12-16T14:49:52;76.28;;;34.08;;
41568;SDS011;27283;52.504;13.358;2022-12-16T14:52:38;81.05;;;33.92;;
41568;SDS011;27283;52.504;13.358;2022-12-16T14:55:25;81.47;;;34.60;;
41568;SDS011;27283;52.504;13.358;2022-12-16T14:58:12;83.75;;;35.00;;
41568;SDS011;27283;52.504;13.358;2022-12-16T15:00:58;81.05;;;36.55;;
41568;SDS011;27283;52.504;13.358;2022-12-16T15:03:48;122.05;;;58.00;;
41568;SDS011;27283;52.504;13.358;2022-12-16T15:06:37;235.40;;;95.60;;
41568;SDS011;27283;52.504;13.358;2022-12-16T15:09:26;137.25;;;57.10;;
41568;SDS011;27283;52.504;13.358;2022-12-16T15:12:16;100.38;;;36.83;;
41568;SDS011;27283;52.504;13.358;2022-12-16T15:15:04;88.10;;;37.08;;
41568;SDS011;27283;52.504;13.358;2022-12-16T15:17:55;83.85;;;34.67;;
41568;SDS011;27283;52.504;13.358;2022-12-16T15:20:44;82.03;;;34.92;;
41568;SDS011;27283;52.504;13.358;2022-12-16T15:23:37;82.85;;;33.50;;
41568;SDS011;27283;52.504;13.358;2022-12-16T15:26:25;77.93;;;32.40;;
41568;SDS011;27283;52.504;13.358;2022-12-16T15:35:33;83.90;;;35.03;;
41568;SDS011;27283;52.504;13.358;2022-12-16T15:38:22;86.10;;;35.42;;
41568;SDS011;27283;52.504;13.358;2022-12-16T15:41:20;78.70;;;34.60;;
41568;SDS011;27283;52.504;13.358;2022-12-16T15:44:16;82.15;;;33.15;;
41568;SDS011;27283;52.504;13.358;2022-12-16T15:47:05;82.85;;;33.08;;
41568;SDS011;27283;52.504;13.358;2022-12-16T15:50:02;79.47;;;35.08;;
41568;SDS011;27283;52.504;13.358;2022-12-16T15:52:49;80.35;;;33.65;;
41568;SDS011;27283;52.504;13.358;2022-12-16T15:55:34;80.93;;;33.38;;
41568;SDS011;27283;52.504;13.358;2022-12-16T15:58:23;81.50;;;32.80;;
41568;SDS011;27283;52.504;13.358;2022-12-16T16:01:10;81.25;;;34.03;;
41568;SDS011;27283;52.504;13.358;2022-12-16T16:04:02;84.90;;;34.42;;
41568;SDS011;27283;52.504;13.358;2022-12-16T16:06:53;84.20;;;34.85;;
41568;SDS011;27283;52.504;13.358;2022-12-16T16:09:38;88.70;;;34.88;;
41568;SDS011;27283;52.504;13.358;2022-12-16T16:12:26;86.25;;;35.55;;
41568;SDS011;27283;52.504;13.358;2022-12-16T16:15:14;89.25;;;37.15;;